x

South Brooks (46132) Wave Buoy

5:00pm - Tue 29th Jul 2014 All times are PDT. -7 hours from GMT.

  • Sig Wave height 3.6ft
  • Peak Period 8s
  • Wind
    13mph, 18mph gusts
  • Sea Temp 63°f
  • Air Temp 62°f
  • Sea Pressure 1022.5mb
  • South Brooks
  • South Brooks

More Historic Weather Station data

Upgrade to MSW Pro to gain access to the past 30 days of data for over 8000 Wavebouys and Weather Stations around the globe.

Join Pro

Comparision Forecast

View Surf forecast
   
Tue 07/29 5:00pm 3.5ft 8s 13 18 mph 1022.5mb 63f 62f
4:00pm 3.5ft 8s 16 18 mph 1022.8mb 63f 62f
3:00pm 3.5ft 7s 13 16 mph 1023mb 63f 62f
2:00pm 4ft 8s 11 13 mph 1023mb 63f 62f
1:00pm 3.5ft 8s 9 11 mph 1022.8mb 63f 62f
12:00pm 3.5ft 8s 9 11 mph 1022.8mb 63f 62f
11:00am 3.5ft 8s 9 11 mph 1022.8mb 63f 62f
10:00am 3.5ft 8s 4 7 mph 1022.6mb 63f 62f
9:00am 3.5ft 8s 2 4 mph 1022.3mb 62f 61f
8:00am 4ft 7s 4 7 mph 1022mb 62f 60f
7:00am 4ft 7s 7 9 mph 1021.7mb 62f 60f
6:00am 4ft 7s 7 9 mph 1021.1mb 62f 61f
5:00am 4ft 6s 4 7 mph 1020.8mb 62f 61f
4:00am 3.5ft 6s 7 9 mph 1020.7mb 62f 61f
3:00am 3.5ft 6s 9 11 mph 1020.6mb 62f 62f
2:00am 3ft 6s 7 9 mph 1020.6mb 62f 61f
1:00am 2.5ft 8s 7
mph
1020.6mb 62f 62f
12:00am 2.5ft 8s 7
mph
1020.9mb 62f 62f
Mon 07/28 11:00pm 2.5ft 8s 4
mph
1021.1mb 62f 62f
10:00pm 2.5ft 8s 4 7 mph 1021.1mb 62f 62f
9:00pm 2.5ft 8s 7
mph
1021mb 62f 62f
8:00pm 2.5ft 16s 7 9 mph 1021.3mb 62f 62f
7:00pm 2.5ft 15s 7 9 mph 1021.4mb 62f 62f
6:00pm 2.5ft 8s 7 9 mph 1021.6mb 63f 62f
5:00pm 2.5ft 8s 7
mph
1021.9mb 63f 62f
4:00pm 2.5ft 8s 7 9 mph 1022mb 63f 61f
3:00pm 2.5ft 8s 7 11 mph 1022.2mb 62f 60f
2:00pm 2.5ft 8s 7 9 mph 1022.2mb 62f 60f
1:00pm 2.5ft 8s 9 11 mph 1022.2mb 62f 61f
12:00pm 2.5ft 7s 7 11 mph 1021.9mb 63f 61f
11:00am 2.5ft 8s 2 4 mph 1022mb 62f 58f
10:00am 2.5ft 8s 7 9 mph 1021.9mb 61f 57f
9:00am 2.5ft 8s 9
mph
1022mb 61f 58f
8:00am 2.5ft 8s 4 9 mph 1022mb 61f 60f
7:00am 2.5ft 8s 7 9 mph 1022mb 61f 60f
6:00am 3ft 8s 7 9 mph 1021.8mb 61f 60f
5:00am 3ft 8s 7 9 mph 1021.6mb 61f 60f
4:00am 3ft 8s 9 11 mph 1021.3mb 61f 60f
3:00am 3ft 8s 9 13 mph 1021.3mb 61f 59f
2:00am 3ft 8s 9 13 mph 1021.6mb 61f 59f
1:00am 3ft 8s 9 11 mph 1022mb 62f 58f
12:00am 3ft 8s 7 9 mph 1022.1mb 62f 59f
Sun 07/27 11:00pm 3ft 8s 9 13 mph 1022.2mb 62f 60f
10:00pm 3ft 8s 7 9 mph 1022.3mb 62f 61f
9:00pm 3ft 8s 9 11 mph 1022.4mb 62f 61f
8:00pm 2.5ft 8s 4 7 mph 1022.5mb 62f 62f
7:00pm 3ft 8s 7 9 mph 1022.7mb 62f 62f
6:00pm 3ft 8s 7 9 mph 1023.1mb 62f 62f
5:00pm 3.5ft 8s 7 9 mph 1023.5mb 62f 62f
4:00pm 3.5ft 8s 7
mph
1023.8mb 62f 62f
3:00pm 3.5ft 7s 7 9 mph 1023.9mb 62f 61f
2:00pm 3.5ft 8s 7 9 mph 1023.9mb 61f 61f
1:00pm 3.5ft 7s 7 9 mph 1023.9mb 61f 61f
12:00pm 3.5ft 8s 4 7 mph 1023.9mb 61f 61f
11:00am 3.5ft 8s 4 7 mph 1023.9mb 60f 60f
10:00am 3.5ft 8s 7 9 mph 1023.7mb 60f 60f
9:00am 3ft 8s 7 9 mph 1023.7mb 60f 60f
8:00am 3ft 8s 4 7 mph 1023.6mb 60f 59f
7:00am 3ft 8s 4
mph
1023.4mb 60f 60f
6:00am 3.5ft 8s 4 7 mph 1023.2mb 60f 60f
5:00am 3ft 9s 4 7 mph 1023.1mb 60f 60f
4:00am 3.5ft 9s 7 9 mph 1022.9mb 60f 60f
3:00am 3.5ft 9s 7
mph
1022.8mb 60f 60f
2:00am 4ft 8s 7 9 mph 1022.8mb 60f 59f
1:00am 4.5ft 8s 7
mph
1022.7mb 60f 60f
12:00am 4.5ft 8s 7 9 mph 1022.7mb 60f 60f
Sat 07/26 11:00pm 4.5ft 8s 4 7 mph 1022.7mb 60f 60f
10:00pm 4.5ft 8s 7 9 mph 1022.7mb 60f 60f
9:00pm 4ft 8s 7
mph
1022.5mb 60f 60f
8:00pm 3.5ft 8s 7 9 mph 1022.5mb 60f 60f
7:00pm 3.5ft 8s 9 11 mph 1022.5mb 60f 60f
6:00pm 3.5ft 8s 9 11 mph 1022.7mb 60f 60f
5:00pm 3.5ft 8s 9 11 mph 1022.7mb 60f 60f
4:00pm 3.5ft 8s 9 11 mph 1022.7mb 60f 60f
3:00pm 3.5ft 8s 11 13 mph 1022.6mb 60f 60f
2:00pm 3.5ft 8s 9 11 mph 1022.6mb 60f 60f
1:00pm 4ft 8s 11 13 mph 1022.3mb 60f 59f
12:00pm 3.5ft 8s 13 16 mph 1022mb 59f 59f
11:00am 3.5ft 8s 13 18 mph 1021.9mb 59f 59f
10:00am 3.5ft 7s 13 16 mph 1021.5mb 59f 59f
9:00am 3.5ft 8s 16 18 mph 1021.1mb 59f 59f
8:00am 2.5ft 8s 16 20 mph 1020.7mb 59f 59f
7:00am 3ft 8s 13 16 mph 1020.4mb 60f 59f
6:00am 2.5ft 8s 13
mph
1020.2mb 60f 59f
5:00am 3ft 8s 11 13 mph 1020.1mb 59f 58f
4:00am 3ft 8s 9 11 mph 1020.1mb 59f 59f
3:00am 3ft 8s 9 11 mph 1020.1mb 59f 59f
2:00am 3.5ft 8s 9
mph
1020mb 59f 59f